createdAt,value
2018-05-01T00:00:36.573Z,64.80
2018-05-01T00:03:04.111Z,65.00
2018-05-01T00:05:32.413Z,65.20
2018-05-01T00:07:59.929Z,65.10
2018-05-01T00:10:27.595Z,65.00
2018-05-01T00:12:55.115Z,64.70
2018-05-01T00:15:25.999Z,64.20
2018-05-01T00:17:55.058Z,64.20
2018-05-01T00:20:22.567Z,64.00
2018-05-01T00:22:50.961Z,63.00
2018-05-01T00:25:19.235Z,62.40
2018-05-01T00:27:47.523Z,62.00
2018-05-01T00:30:15.969Z,62.30
2018-05-01T00:32:43.469Z,62.00
2018-05-01T00:35:11.849Z,62.00
2018-05-01T00:37:39.361Z,61.80
2018-05-01T00:40:06.891Z,61.80
2018-05-01T00:42:35.168Z,61.70
2018-05-01T00:45:03.462Z,61.80
2018-05-01T00:47:31.093Z,61.70
2018-05-01T00:49:58.596Z,61.10
2018-05-01T00:52:37.870Z,60.60
2018-05-01T00:55:05.383Z,60.20
2018-05-01T00:57:33.681Z,59.60
2018-05-01T01:00:03.196Z,59.60
2018-05-01T01:02:30.717Z,59.50
2018-05-01T01:04:59.005Z,60.00
2018-05-01T01:07:27.276Z,60.00
2018-05-01T01:09:54.875Z,60.00
2018-05-01T01:12:23.285Z,59.70
2018-05-01T01:14:51.036Z,59.70
2018-05-01T01:17:19.532Z,59.40
2018-05-01T01:19:47.361Z,59.20
2018-05-01T01:22:15.775Z,57.80
2018-05-01T01:24:43.347Z,57.80
2018-05-01T01:27:10.860Z,57.20
2018-05-01T01:29:38.417Z,56.20
2018-05-01T01:32:20.876Z,55.30
2018-05-01T01:34:48.473Z,55.30
2018-05-01T01:37:15.518Z,54.40
2018-05-01T01:39:42.589Z,54.20
2018-05-01T01:42:10.584Z,53.80
2018-05-01T01:44:38.368Z,53.50
2018-05-01T01:47:06.306Z,53.20
2018-05-01T01:49:33.672Z,53.20
2018-05-01T01:52:00.668Z,53.10
2018-05-01T01:54:27.721Z,53.40
2018-05-01T01:56:54.841Z,54.00
2018-05-01T01:59:21.851Z,54.70
2018-05-01T02:01:48.900Z,54.30
2018-05-01T02:04:16.005Z,54.50
2018-05-01T02:06:43.852Z,54.70
2018-05-01T02:09:10.880Z,54.70
2018-05-01T02:11:37.911Z,54.60
2018-05-01T02:14:04.942Z,54.30
2018-05-01T02:16:32.733Z,54.90
2018-05-01T02:18:59.735Z,54.90
2018-05-01T02:21:26.999Z,55.10
2018-05-01T02:23:54.768Z,54.70
2018-05-01T02:26:21.792Z,55.10
2018-05-01T02:28:48.811Z,55.90
2018-05-01T02:31:15.840Z,55.50
2018-05-01T02:33:43.682Z,55.60
2018-05-01T02:36:10.680Z,55.60
2018-05-01T02:38:37.708Z,55.60
2018-05-01T02:41:05.583Z,56.10
2018-05-01T02:43:32.547Z,55.50
2018-05-01T02:46:00.307Z,56.10
2018-05-01T02:48:28.186Z,56.00
2018-05-01T02:50:55.948Z,56.00
2018-05-01T02:53:23.774Z,55.90
2018-05-01T02:55:50.810Z,55.90
2018-05-01T02:58:17.828Z,56.00
2018-05-01T03:00:45.611Z,56.00
2018-05-01T03:03:12.643Z,56.00
2018-05-01T03:05:40.414Z,56.00
2018-05-01T03:08:07.647Z,55.90
2018-05-01T03:10:34.671Z,56.00
2018-05-01T03:13:01.720Z,55.50
2018-05-01T03:15:28.743Z,55.60
2018-05-01T03:17:55.891Z,55.10
2018-05-01T03:20:23.656Z,55.30
2018-05-01T03:22:51.443Z,55.30
2018-05-01T03:25:18.471Z,55.20
2018-05-01T03:27:46.241Z,55.60
2018-05-01T03:30:14.063Z,55.30
2018-05-01T03:32:41.083Z,55.30
2018-05-01T03:35:08.100Z,55.40
2018-05-01T03:37:35.122Z,55.60
2018-05-01T03:40:02.127Z,55.50
2018-05-01T03:42:29.927Z,55.90
2018-05-01T03:44:56.933Z,55.90
2018-05-01T03:47:23.959Z,56.00
2018-05-01T03:49:50.969Z,56.10
2018-05-01T03:52:17.961Z,56.20
2018-05-01T03:54:45.005Z,56.50
2018-05-01T03:57:12.021Z,56.30
2018-05-01T03:59:39.048Z,56.30
2018-05-01T04:02:06.817Z,55.80
2018-05-01T04:04:34.613Z,55.70
2018-05-01T04:07:01.636Z,55.70
2018-05-01T04:09:29.439Z,55.60
2018-05-01T04:11:56.459Z,55.60
2018-05-01T04:14:24.248Z,55.90
2018-05-01T04:16:52.006Z,56.10
2018-05-01T04:19:19.817Z,56.10
2018-05-01T04:21:46.824Z,56.10
2018-05-01T04:24:14.651Z,56.60
2018-05-01T04:26:41.657Z,56.60
2018-05-01T04:29:09.429Z,56.90
2018-05-01T04:31:37.247Z,57.10
2018-05-01T04:34:04.251Z,57.10
2018-05-01T04:36:31.283Z,57.30
2018-05-01T04:38:58.309Z,57.40
2018-05-01T04:41:25.333Z,57.70
2018-05-01T04:43:52.355Z,57.40
2018-05-01T04:46:20.194Z,56.70
2018-05-01T04:48:47.239Z,56.70
2018-05-01T04:51:14.235Z,56.80
2018-05-01T04:53:42.035Z,56.30
2018-05-01T04:56:09.162Z,56.30
2018-05-01T04:58:36.298Z,56.20
2018-05-01T05:01:03.272Z,56.30
2018-05-01T05:03:30.277Z,55.70
2018-05-01T05:05:57.281Z,55.40
2018-05-01T05:08:24.333Z,55.20
2018-05-01T05:10:51.390Z,55.00
2018-05-01T05:13:18.580Z,54.50
2018-05-01T05:15:45.644Z,55.00
2018-05-01T05:18:13.481Z,54.80
2018-05-01T05:20:40.510Z,54.70
2018-05-01T05:23:07.605Z,54.70
2018-05-01T05:25:35.094Z,53.60
2018-05-01T05:28:02.141Z,53.60
2018-05-01T05:30:29.257Z,53.00
2018-05-01T05:32:56.327Z,52.40
2018-05-01T05:35:23.371Z,52.60
2018-05-01T05:37:50.395Z,52.00
2018-05-01T05:40:17.525Z,52.10
2018-05-01T05:42:45.839Z,52.40
2018-05-01T05:45:13.754Z,52.50
2018-05-01T05:47:40.796Z,51.80
2018-05-01T05:50:07.817Z,51.20
2018-05-01T05:52:34.923Z,51.20
2018-05-01T05:55:02.754Z,51.00
2018-05-01T05:57:29.757Z,51.00
2018-05-01T05:59:58.190Z,49.10
2018-05-01T06:02:25.184Z,49.10
2018-05-01T06:04:52.208Z,49.10
2018-05-01T06:07:19.225Z,48.70
2018-05-01T06:09:46.250Z,47.80
2018-05-01T06:12:13.251Z,46.70
2018-05-01T06:14:40.270Z,44.40
2018-05-01T06:17:08.101Z,45.30
2018-05-01T06:19:35.141Z,45.20
2018-05-01T06:22:02.254Z,44.60
2018-05-01T06:24:29.213Z,44.10
2018-05-01T06:26:56.249Z,42.90
2018-05-01T06:29:24.048Z,43.00
2018-05-01T06:31:51.924Z,41.30
2018-05-01T06:34:20.420Z,42.10
2018-05-01T06:36:47.425Z,41.60
2018-05-01T06:39:15.197Z,41.40
2018-05-01T06:41:43.002Z,41.80
2018-05-01T06:44:10.885Z,41.80
2018-05-01T06:46:37.949Z,42.00
2018-05-01T06:49:04.975Z,41.50
2018-05-01T06:51:32.023Z,41.80
2018-05-01T06:53:59.112Z,41.10
2018-05-01T06:56:26.130Z,41.50
2018-05-01T06:58:53.133Z,41.40
2018-05-01T07:01:20.150Z,40.70
2018-05-01T07:03:47.204Z,40.50
2018-05-01T07:06:14.243Z,40.10
2018-05-01T07:08:41.260Z,40.70
2018-05-01T07:11:09.067Z,41.20
2018-05-01T07:13:36.153Z,41.20
2018-05-01T07:16:03.188Z,41.50
2018-05-01T07:18:30.214Z,42.50
2018-05-01T07:20:57.250Z,41.80
2018-05-01T07:23:24.308Z,41.90
2018-05-01T07:25:51.348Z,41.60
2018-05-01T07:28:19.112Z,41.80
2018-05-01T07:30:46.879Z,40.90
2018-05-01T07:33:14.676Z,40.10
2018-05-01T07:35:41.721Z,40.60
2018-05-01T07:38:08.736Z,40.20
2018-05-01T07:40:36.092Z,40.40
2018-05-01T07:43:03.100Z,40.10
2018-05-01T07:45:30.226Z,41.00
2018-05-01T07:47:58.164Z,40.40
2018-05-01T07:50:25.200Z,40.40
2018-05-01T07:52:52.341Z,41.40
2018-05-01T07:55:19.600Z,41.50
2018-05-01T07:57:46.610Z,40.60
2018-05-01T08:00:14.446Z,39.70
2018-05-01T08:02:41.459Z,39.60
2018-05-01T08:05:08.487Z,39.10
2018-05-01T08:07:36.310Z,39.20
2018-05-01T08:10:03.335Z,39.10
2018-05-01T08:12:30.460Z,38.60
2018-05-01T08:14:58.302Z,38.50
2018-05-01T08:17:25.315Z,38.90
2018-05-01T08:19:52.501Z,39.30
2018-05-01T08:22:20.368Z,39.20
2018-05-01T08:24:48.729Z,39.20
2018-05-01T08:27:15.934Z,39.20
2018-05-01T08:29:42.943Z,39.00
2018-05-01T08:32:10.069Z,38.90
2018-05-01T08:34:38.089Z,39.20
2018-05-01T08:37:05.697Z,39.10
2018-05-01T08:39:33.595Z,40.30
2018-05-01T08:42:00.637Z,40.30
2018-05-01T08:44:27.747Z,39.30
2018-05-01T08:46:54.772Z,39.30
2018-05-01T08:49:21.793Z,38.10
2018-05-01T08:51:49.668Z,36.60
2018-05-01T08:54:16.903Z,36.60
2018-05-01T08:56:43.934Z,36.90
2018-05-01T08:59:10.946Z,36.70
2018-05-01T09:01:38.104Z,36.70
2018-05-01T09:04:05.721Z,37.70
2018-05-01T09:06:32.767Z,37.30
2018-05-01T09:08:59.957Z,38.70
2018-05-01T09:11:27.824Z,38.20
2018-05-01T09:13:55.104Z,38.10
2018-05-01T09:16:24.229Z,38.60
2018-05-01T09:18:52.106Z,39.10
2018-05-01T09:21:20.646Z,38.80
2018-05-01T09:23:48.496Z,38.90
2018-05-01T09:26:16.407Z,39.60
2018-05-01T09:28:43.432Z,39.60
2018-05-01T09:31:11.214Z,39.90
2018-05-01T09:33:38.251Z,39.90
2018-05-01T09:36:06.080Z,38.70
2018-05-01T09:38:34.178Z,38.70
2018-05-01T09:41:01.278Z,39.50
2018-05-01T09:43:28.378Z,39.10
2018-05-01T09:45:55.583Z,38.70
2018-05-01T09:48:22.650Z,37.80
2018-05-01T09:50:50.039Z,37.90
2018-05-01T09:53:19.049Z,37.00
2018-05-01T09:55:47.482Z,38.60
2018-05-01T09:58:15.028Z,38.60
2018-05-01T10:00:43.313Z,37.10
2018-05-01T10:03:10.895Z,37.10
2018-05-01T10:05:38.706Z,37.30
2018-05-01T10:08:07.063Z,37.60
2018-05-01T10:10:35.453Z,37.60
2018-05-01T10:13:02.987Z,37.50
2018-05-01T10:15:30.515Z,36.20
2018-05-01T10:17:58.048Z,36.50
2018-05-01T10:20:25.565Z,36.30
2018-05-01T10:22:53.876Z,36.30
2018-05-01T10:25:21.559Z,36.40
2018-05-01T10:27:49.087Z,35.30
2018-05-01T10:30:16.620Z,36.30
2018-05-01T10:32:44.321Z,35.10
2018-05-01T10:35:11.964Z,35.80
2018-05-01T10:37:40.390Z,35.40
2018-05-01T10:40:07.919Z,35.40
2018-05-01T10:42:36.259Z,36.50
2018-05-01T10:45:03.852Z,36.50
2018-05-01T10:47:31.391Z,36.10
2018-05-01T10:49:58.942Z,35.90
2018-05-01T10:52:26.537Z,36.50
2018-05-01T10:54:54.040Z,36.30
2018-05-01T10:57:21.605Z,36.60
2018-05-01T10:59:50.170Z,35.40
2018-05-01T11:02:18.799Z,35.80
2018-05-01T11:04:46.349Z,35.70
2018-05-01T11:07:14.016Z,36.30
2018-05-01T11:09:41.544Z,37.30
2018-05-01T11:12:09.049Z,36.40
2018-05-01T11:14:36.595Z,36.10
2018-05-01T11:17:04.168Z,36.10
2018-05-01T11:19:31.734Z,36.80
2018-05-01T11:21:59.272Z,37.00
2018-05-01T11:24:27.893Z,35.80
2018-05-01T11:26:55.438Z,36.20
2018-05-01T11:29:22.962Z,35.40
2018-05-01T11:31:50.600Z,36.10
2018-05-01T11:34:18.119Z,34.90
2018-05-01T11:36:46.410Z,35.70
2018-05-01T11:39:14.722Z,35.40
2018-05-01T11:41:42.244Z,35.40
2018-05-01T11:44:10.549Z,35.30
2018-05-01T11:46:38.076Z,35.20
2018-05-01T11:49:05.676Z,34.80
2018-05-01T11:51:33.264Z,34.60
2018-05-01T11:54:00.780Z,34.80
2018-05-01T11:56:28.498Z,34.90
2018-05-01T11:58:56.049Z,34.70
2018-05-01T12:01:23.562Z,34.70
2018-05-01T12:03:51.073Z,36.00
2018-05-01T12:06:18.725Z,35.70
2018-05-01T12:08:46.488Z,34.10
2018-05-01T12:11:14.794Z,34.60
2018-05-01T12:13:42.318Z,34.60
2018-05-01T12:16:10.707Z,34.60
2018-05-01T12:18:39.188Z,33.30
2018-05-01T12:21:06.641Z,33.30
2018-05-01T12:23:35.024Z,33.90
2018-05-01T12:26:02.469Z,33.90
2018-05-01T12:28:29.965Z,33.90
2018-05-01T12:30:58.852Z,34.20
2018-05-01T12:33:27.144Z,33.90
2018-05-01T12:35:55.409Z,34.40
2018-05-01T12:38:22.969Z,34.50
2018-05-01T12:40:50.537Z,33.80
2018-05-01T12:43:18.082Z,34.30
2018-05-01T12:45:45.596Z,34.50
2018-05-01T12:48:13.189Z,35.30
2018-05-01T12:50:40.637Z,35.30
2018-05-01T12:53:08.124Z,36.20
2018-05-01T12:55:35.756Z,35.80
2018-05-01T12:58:03.286Z,35.50
2018-05-01T13:00:31.806Z,35.50
2018-05-01T13:02:59.350Z,35.50
2018-05-01T13:05:28.146Z,34.60
2018-05-01T13:07:56.973Z,34.30
2018-05-01T13:10:24.490Z,34.30
2018-05-01T13:12:52.763Z,34.40
2018-05-01T13:15:21.074Z,34.70
2018-05-01T13:17:48.582Z,34.10
2018-05-01T13:20:16.123Z,34.70
2018-05-01T13:22:44.363Z,35.40
2018-05-01T13:25:12.630Z,35.40
2018-05-01T13:27:40.769Z,35.40
2018-05-01T13:30:08.347Z,35.00
2018-05-01T13:32:36.173Z,34.00
2018-05-01T13:35:03.696Z,34.40
2018-05-01T13:37:33.014Z,34.50
2018-05-01T13:40:01.390Z,35.60
2018-05-01T13:42:28.949Z,35.50
2018-05-01T13:44:56.455Z,34.80
2018-05-01T13:47:24.173Z,35.30
2018-05-01T13:49:51.879Z,35.70
2018-05-01T13:52:19.459Z,35.30
2018-05-01T13:54:47.126Z,35.60
2018-05-01T13:57:14.716Z,35.60
2018-05-01T13:59:42.958Z,36.40
2018-05-01T14:02:12.481Z,35.50
2018-05-01T14:04:40.031Z,35.40
2018-05-01T14:07:08.433Z,35.50
2018-05-01T14:09:35.972Z,35.40
2018-05-01T14:12:04.341Z,35.80
2018-05-01T14:14:32.628Z,36.30
2018-05-01T14:17:00.976Z,35.60
2018-05-01T14:19:28.500Z,35.60
2018-05-01T14:21:56.225Z,36.20
2018-05-01T14:24:23.832Z,36.90
2018-05-01T14:26:51.457Z,37.00
2018-05-01T14:29:19.795Z,36.90
2018-05-01T14:31:47.327Z,36.90
2018-05-01T14:34:15.627Z,37.10
2018-05-01T14:36:43.160Z,37.10
2018-05-01T14:39:10.689Z,37.00
2018-05-01T14:41:38.209Z,37.30
2018-05-01T14:44:05.755Z,36.40
2018-05-01T14:46:34.705Z,35.80
2018-05-01T14:49:02.225Z,35.70
2018-05-01T14:51:30.529Z,36.00
2018-05-01T14:53:58.047Z,36.00
2018-05-01T14:56:25.895Z,36.20
2018-05-01T14:58:53.408Z,36.50
2018-05-01T15:01:21.794Z,35.60
2018-05-01T15:03:50.430Z,35.50
2018-05-01T15:06:18.007Z,35.70
2018-05-01T15:08:45.631Z,36.10
2018-05-01T15:11:13.154Z,36.60
2018-05-01T15:13:41.462Z,36.70
2018-05-01T15:16:10.136Z,36.50
2018-05-01T15:18:38.457Z,36.20
2018-05-01T15:21:06.814Z,36.60
2018-05-01T15:23:34.548Z,36.60
2018-05-01T15:26:02.217Z,36.70
2018-05-01T15:28:29.735Z,36.50
2018-05-01T15:30:57.245Z,36.50
2018-05-01T15:33:24.785Z,37.00
2018-05-01T15:35:52.367Z,36.60
2018-05-01T15:38:20.691Z,37.20
2018-05-01T15:40:48.267Z,37.10
2018-05-01T15:43:16.093Z,37.50
2018-05-01T15:45:43.699Z,37.30
2018-05-01T15:48:11.236Z,35.70
2018-05-01T15:50:39.572Z,36.70
2018-05-01T15:53:07.141Z,36.50
2018-05-01T15:55:34.711Z,37.10
2018-05-01T15:58:02.278Z,37.10
2018-05-01T16:00:29.891Z,37.70
2018-05-01T16:02:57.419Z,37.70
2018-05-01T16:05:24.932Z,37.70
2018-05-01T16:07:52.470Z,37.80
2018-05-01T16:10:20.754Z,37.50
2018-05-01T16:12:49.074Z,37.20
2018-05-01T16:15:16.569Z,37.10
2018-05-01T16:17:44.272Z,37.10
2018-05-01T16:20:12.612Z,37.00
2018-05-01T16:22:40.165Z,36.90
2018-05-01T16:25:07.683Z,36.90
2018-05-01T16:27:35.325Z,37.00
2018-05-01T16:30:02.830Z,37.50
2018-05-01T16:32:30.415Z,38.00
2018-05-01T16:34:57.966Z,38.30
2018-05-01T16:37:25.465Z,37.40
2018-05-01T16:39:53.200Z,37.20
2018-05-01T16:42:20.717Z,37.00
2018-05-01T16:44:48.230Z,37.50
2018-05-01T16:47:15.744Z,37.80
2018-05-01T16:49:43.287Z,37.80
2018-05-01T16:52:12.357Z,38.10
2018-05-01T16:54:40.054Z,38.00
2018-05-01T16:57:07.588Z,38.10
2018-05-01T16:59:35.134Z,38.50
2018-05-01T17:02:02.655Z,38.40
2018-05-01T17:04:30.364Z,38.60
2018-05-01T17:06:57.757Z,38.60
2018-05-01T17:09:25.297Z,38.90
2018-05-01T17:11:52.823Z,38.90
2018-05-01T17:14:20.353Z,39.20
2018-05-01T17:16:47.927Z,39.00
2018-05-01T17:19:15.471Z,39.00
2018-05-01T17:21:43.307Z,39.30
2018-05-01T17:24:11.588Z,39.60
2018-05-01T17:26:39.163Z,39.50
2018-05-01T17:29:06.920Z,39.50
2018-05-01T17:31:34.345Z,39.90
2018-05-01T17:34:01.928Z,39.70
2018-05-01T17:36:30.212Z,38.90
2018-05-01T17:38:58.497Z,37.90
2018-05-01T17:41:26.809Z,37.60
2018-05-01T17:43:54.794Z,37.50
2018-05-01T17:46:22.825Z,37.80
2018-05-01T17:48:51.116Z,37.50
2018-05-01T17:51:19.440Z,37.50
2018-05-01T17:53:47.002Z,37.50
2018-05-01T17:56:14.550Z,37.40
2018-05-01T17:58:42.107Z,37.60
2018-05-01T18:01:09.675Z,37.40
2018-05-01T18:03:38.980Z,37.70
2018-05-01T18:06:06.816Z,37.40
2018-05-01T18:08:35.109Z,38.50
2018-05-01T18:11:03.411Z,38.50
2018-05-01T18:13:30.979Z,38.50
2018-05-01T18:15:58.672Z,38.80
2018-05-01T18:18:26.188Z,39.00
2018-05-01T18:20:53.711Z,38.90
2018-05-01T18:23:21.300Z,39.00
2018-05-01T18:25:50.250Z,38.90
2018-05-01T18:28:23.326Z,39.10
2018-05-01T18:30:51.173Z,39.30
2018-05-01T18:33:21.455Z,39.50
2018-05-01T18:35:49.801Z,39.60
2018-05-01T18:38:19.560Z,39.90
2018-05-01T18:40:47.226Z,40.30
2018-05-01T18:43:21.090Z,40.30
2018-05-01T18:45:48.716Z,40.70
2018-05-01T18:48:16.237Z,40.80
2018-05-01T18:50:43.853Z,41.20
2018-05-01T18:53:12.166Z,41.50
2018-05-01T18:55:40.202Z,41.50
2018-05-01T18:58:08.113Z,41.70
2018-05-01T19:00:35.655Z,41.70
2018-05-01T19:03:03.475Z,41.70
2018-05-01T19:05:31.055Z,41.70
2018-05-01T19:07:58.587Z,42.10
2018-05-01T19:10:26.311Z,42.20
2018-05-01T19:12:53.810Z,42.40
2018-05-01T19:15:21.335Z,43.10
2018-05-01T19:17:48.861Z,43.40
2018-05-01T19:20:16.377Z,43.50
2018-05-01T19:22:44.279Z,43.50
2018-05-01T19:25:12.713Z,43.90
2018-05-01T19:27:41.499Z,44.70
2018-05-01T19:30:09.131Z,44.30
2018-05-01T19:32:36.649Z,44.60
2018-05-01T19:35:06.107Z,45.50
2018-05-01T19:37:33.779Z,45.20
2018-05-01T19:40:02.813Z,45.40
2018-05-01T19:42:30.489Z,45.50
2018-05-01T19:45:03.959Z,44.80
2018-05-01T19:47:31.471Z,44.80
2018-05-01T19:49:59.063Z,45.10
2018-05-01T19:52:26.649Z,45.30
2018-05-01T19:54:54.194Z,45.50
2018-05-01T19:57:21.743Z,45.70
2018-05-01T19:59:49.408Z,45.90
2018-05-01T20:02:16.932Z,45.50
2018-05-01T20:04:45.420Z,46.10
2018-05-01T20:07:13.944Z,46.60
2018-05-01T20:09:41.484Z,46.50
2018-05-01T20:12:10.122Z,47.40
2018-05-01T20:14:37.738Z,47.40
2018-05-01T20:17:06.847Z,48.10
2018-05-01T20:19:34.611Z,48.00
2018-05-01T20:22:02.200Z,48.40
2018-05-01T20:24:29.861Z,48.80
2018-05-01T20:26:57.766Z,49.30
2018-05-01T20:29:25.477Z,49.50
2018-05-01T20:31:53.041Z,49.60
2018-05-01T20:34:22.267Z,49.40
2018-05-01T20:36:49.832Z,49.40
2018-05-01T20:39:17.386Z,49.70
2018-05-01T20:41:45.066Z,49.60
2018-05-01T20:44:12.675Z,49.90
2018-05-01T20:46:44.916Z,49.90
2018-05-01T20:49:12.495Z,49.70
2018-05-01T20:51:41.362Z,49.50
2018-05-01T20:54:09.006Z,49.20
2018-05-01T20:56:36.633Z,49.10
2018-05-01T20:59:09.276Z,49.40
2018-05-01T21:01:37.733Z,49.50
2018-05-01T21:04:06.291Z,49.80
2018-05-01T21:06:34.279Z,49.80
2018-05-01T21:09:02.869Z,49.90
2018-05-01T21:11:30.953Z,49.50
2018-05-01T21:13:59.225Z,49.40
2018-05-01T21:16:26.763Z,49.30
2018-05-01T21:18:54.277Z,49.10
2018-05-01T21:21:22.001Z,48.90
2018-05-01T21:23:49.951Z,49.00
2018-05-01T21:26:23.091Z,48.70
2018-05-01T21:28:52.055Z,48.60
2018-05-01T21:31:20.405Z,48.20
2018-05-01T21:33:48.278Z,48.20
2018-05-01T21:36:16.126Z,48.10
2018-05-01T21:38:46.714Z,48.10
2018-05-01T21:41:15.673Z,48.20
2018-05-01T21:43:43.463Z,48.10
2018-05-01T21:46:11.025Z,47.80
2018-05-01T21:48:38.548Z,47.70
2018-05-01T21:51:06.413Z,47.70
2018-05-01T21:53:33.971Z,48.00
2018-05-01T21:56:01.715Z,48.20
2018-05-01T21:58:31.178Z,48.40
2018-05-01T22:00:59.807Z,49.50
2018-05-01T22:03:27.343Z,49.50
2018-05-01T22:05:56.337Z,50.00
2018-05-01T22:08:24.609Z,49.90
2018-05-01T22:10:53.195Z,49.10
2018-05-01T22:13:20.945Z,49.10
2018-05-01T22:15:48.577Z,48.50
2018-05-01T22:18:16.569Z,48.20
2018-05-01T22:20:44.169Z,48.30
2018-05-01T22:23:11.755Z,48.20
2018-05-01T22:25:39.259Z,48.50
2018-05-01T22:28:06.793Z,48.40
2018-05-01T22:30:34.673Z,49.00
2018-05-01T22:33:02.352Z,48.60
2018-05-01T22:35:30.147Z,49.20
2018-05-01T22:38:02.007Z,48.90
2018-05-01T22:40:33.694Z,49.00
2018-05-01T22:43:02.307Z,49.60
2018-05-01T22:45:29.823Z,49.60
2018-05-01T22:47:58.284Z,50.60
2018-05-01T22:50:25.792Z,50.60
2018-05-01T22:52:53.445Z,50.70
2018-05-01T22:55:22.520Z,51.00
2018-05-01T22:57:50.105Z,51.00
2018-05-01T23:00:27.252Z,51.20
2018-05-01T23:02:54.819Z,51.50
2018-05-01T23:05:22.445Z,52.30
2018-05-01T23:07:49.974Z,52.70
2018-05-01T23:10:18.244Z,53.50
2018-05-01T23:12:45.737Z,53.50
2018-05-01T23:15:13.275Z,53.30
2018-05-01T23:17:41.549Z,53.40
2018-05-01T23:20:09.212Z,52.90
2018-05-01T23:22:36.778Z,52.90
2018-05-01T23:25:05.047Z,53.10
2018-05-01T23:27:32.559Z,53.10
2018-05-01T23:30:00.068Z,51.90
2018-05-01T23:32:27.786Z,51.90
2018-05-01T23:34:55.291Z,51.80
2018-05-01T23:37:22.791Z,51.70
2018-05-01T23:39:51.064Z,52.60
2018-05-01T23:42:18.579Z,52.60
2018-05-01T23:44:46.104Z,53.20
2018-05-01T23:47:14.417Z,54.00
2018-05-01T23:49:41.963Z,54.00
2018-05-01T23:52:09.532Z,54.10
2018-05-01T23:54:37.043Z,53.50
2018-05-01T23:57:04.756Z,52.80
2018-05-01T23:59:33.480Z,52.80
